Time;durP1;ratioP1;P1;durP2;ratioP2;P2;SDS_P1;SDS_P2;PMS_P1;PMS_P2;Temp;Humidity;BMP_temperature;BMP_pressure;BME280_temperature;BME280_humidity;BME280_pressure;Samples;Min_cycle;Max_cycle;Signal;HPM_P1;HPM_P2
2021/09/27 00:02:14;;;;;;;10.05;7.65;;;;;;;13.31;72.70;96843.16;5095151;28;20099;-66
2021/09/27 00:04:40;;;;;;;10.48;8.00;;;;;;;13.30;73.04;96836.19;5095098;28;20110;-66
2021/09/27 00:07:05;;;;;;;11.27;6.63;;;;;;;13.29;72.70;96839.72;5094925;28;20373;-66
2021/09/27 00:09:34;;;;;;;9.43;7.00;;;;;;;13.26;72.47;96845.97;5094925;28;20016;-66
2021/09/27 00:12:05;;;;;;;10.90;7.18;;;;;;;13.23;73.17;96844.34;5095065;28;20099;-66
2021/09/27 00:14:31;;;;;;;13.48;8.10;;;;;;;13.19;73.61;96852.41;5095017;28;20020;-66
2021/09/27 00:16:57;;;;;;;7.53;6.72;;;;;;;13.22;73.43;96844.41;5094923;28;20016;-66
2021/09/27 00:19:24;;;;;;;10.98;7.55;;;;;;;13.21;73.09;96840.06;5094757;28;20154;-66
2021/09/27 00:21:52;;;;;;;10.32;7.85;;;;;;;13.18;73.45;96840.22;5094628;28;20027;-66
2021/09/27 00:24:19;;;;;;;9.95;7.47;;;;;;;13.16;73.34;96835.03;5094665;28;20023;-66
2021/09/27 00:26:46;;;;;;;10.63;7.47;;;;;;;13.15;72.96;96833.28;5094605;28;20070;-66
2021/09/27 00:29:12;;;;;;;9.52;7.93;;;;;;;13.08;73.88;96831.88;5094543;28;20492;-66
2021/09/27 00:31:38;;;;;;;10.60;7.38;;;;;;;13.11;73.71;96831.72;5094398;28;20040;-66
2021/09/27 00:34:04;;;;;;;9.40;7.05;;;;;;;13.11;73.47;96829.09;5094474;28;20470;-66
2021/09/27 00:36:30;;;;;;;10.82;7.30;;;;;;;13.08;72.93;96829.25;5094434;28;20020;-66
2021/09/27 00:38:56;;;;;;;10.48;7.20;;;;;;;13.07;73.26;96828.41;5094419;28;20020;-66
2021/09/27 00:41:22;;;;;;;10.00;6.88;;;;;;;13.06;73.58;96817.97;5094354;28;20037;-66
2021/09/27 00:43:49;;;;;;;14.48;7.88;;;;;;;13.00;74.23;96814.69;5094198;28;20086;-66
2021/09/27 00:46:19;;;;;;;9.65;7.25;;;;;;;13.01;74.55;96823.41;5094272;28;20020;-66
2021/09/27 00:48:45;;;;;;;17.50;7.90;;;;;;;13.03;74.50;96821.56;5094403;28;20058;-66
2021/09/27 00:51:17;;;;;;;11.65;6.88;;;;;;;13.07;73.78;96815.28;5094122;28;20095;-66
2021/09/27 00:54:05;;;;;;;9.75;7.38;;;;;;;13.08;73.52;96821.34;5093926;28;20048;-66
2021/09/27 00:56:40;;;;;;;8.07;6.80;;;;;;;13.03;73.55;96813.69;5094000;28;20381;-66
2021/09/27 00:59:07;;;;;;;8.85;6.93;;;;;;;12.98;73.72;96823.53;5093979;28;20097;-66
2021/09/27 01:01:32;;;;;;;11.20;7.35;;;;;;;12.97;74.10;96816.56;5094031;28;20031;-66
2021/09/27 01:03:58;;;;;;;9.27;7.55;;;;;;;12.86;74.41;96814.44;5093773;28;20028;-66
2021/09/27 01:06:30;;;;;;;13.80;8.15;;;;;;;12.86;74.31;96810.00;5093870;28;20030;-66
2021/09/27 01:09:25;;;;;;;8.65;6.60;;;;;;;12.91;73.65;96809.81;5093271;28;20028;-66
2021/09/27 01:12:08;;;;;;;10.07;6.95;;;;;;;12.89;73.30;96803.78;5093785;28;20039;-66
2021/09/27 01:14:55;;;;;;;11.57;7.82;;;;;;;12.86;73.63;96811.81;5093855;28;20441;-66
2021/09/27 01:17:39;;;;;;;10.18;7.53;;;;;;;12.88;73.44;96809.94;5093668;28;20580;-66
2021/09/27 01:20:11;;;;;;;10.55;8.13;;;;;;;12.86;73.59;96811.81;5093675;28;20028;-66
2021/09/27 01:22:46;;;;;;;8.80;7.07;;;;;;;12.84;73.57;96816.25;5093869;28;20028;-66
2021/09/27 01:25:40;;;;;;;10.35;7.18;;;;;;;12.82;73.83;96820.72;5093612;28;20077;-66
2021/09/27 01:28:22;;;;;;;7.93;7.00;;;;;;;12.80;73.42;96826.06;5093653;28;20020;-66
2021/09/27 01:31:09;;;;;;;11.27;6.50;;;;;;;12.76;73.41;96824.44;5093403;28;20032;-66
2021/09/27 01:33:38;;;;;;;11.27;7.22;;;;;;;12.77;73.27;96816.50;5093334;28;20032;-66
2021/09/27 01:36:20;;;;;;;14.45;7.95;;;;;;;12.77;73.36;96820.94;5093455;28;20112;-66
2021/09/27 01:38:52;;;;;;;10.73;8.30;;;;;;;12.76;73.47;96819.19;5092041;28;20103;-66
2021/09/27 01:41:30;;;;;;;13.70;7.90;;;;;;;12.75;72.86;96818.38;5093390;28;20020;-66
2021/09/27 01:44:23;;;;;;;10.48;7.35;;;;;;;12.69;73.13;96813.38;5093199;28;20444;-66
2021/09/27 01:46:57;;;;;;;8.85;7.15;;;;;;;12.70;72.89;96819.47;5093261;28;20059;-66
2021/09/27 01:49:42;;;;;;;12.73;6.60;;;;;;;12.66;72.41;96815.25;5093547;28;20110;-66
2021/09/27 01:52:08;;;;;;;9.93;6.70;;;;;;;12.62;73.15;96817.16;5093381;28;20032;-66
2021/09/27 01:54:47;;;;;;;8.57;7.22;;;;;;;12.57;73.32;96816.50;5092916;28;20052;-66
2021/09/27 01:57:55;;;;;;;11.63;7.45;;;;;;;12.53;73.38;96818.41;5093307;28;20024;-66
2021/09/27 02:00:37;;;;;;;11.15;8.10;;;;;;;12.47;73.98;96818.66;5093207;28;20036;-66
2021/09/27 02:03:08;;;;;;;11.25;7.72;;;;;;;12.50;73.51;96824.63;5093153;28;20028;-66
2021/09/27 02:06:03;;;;;;;12.30;7.80;;;;;;;12.49;73.83;96824.69;5093202;28;20028;-66
2021/09/27 02:08:44;;;;;;;8.82;7.47;;;;;;;12.50;73.72;96824.63;5092671;28;20039;-66
2021/09/27 02:11:28;;;;;;;9.75;7.45;;;;;;;12.42;73.67;96807.50;5093348;28;20423;-66
2021/09/27 02:14:02;;;;;;;11.05;7.75;;;;;;;12.46;73.44;96816.97;5093091;28;20408;-66
2021/09/27 02:16:44;;;;;;;9.65;7.60;;;;;;;12.47;72.82;96810.78;5093020;28;20036;-66
2021/09/27 02:19:29;;;;;;;9.73;7.93;;;;;;;12.44;73.72;96816.16;5093064;28;20027;-66
2021/09/27 02:22:13;;;;;;;8.02;6.85;;;;;;;12.41;73.22;96818.91;5096962;28;20568;-66
2021/09/27 02:25:06;;;;;;;11.35;7.25;;;;;;;12.43;74.04;96812.66;5096928;28;20032;-66
2021/09/27 02:27:32;;;;;;;11.80;7.90;;;;;;;12.40;74.18;96814.59;5096987;28;20028;-66
2021/09/27 02:29:58;;;;;;;9.00;7.15;;;;;;;12.36;74.16;96811.22;5096832;28;20377;-66
2021/09/27 02:32:36;;;;;;;9.50;7.32;;;;;;;12.33;73.78;96817.47;5096889;28;20059;-66
2021/09/27 02:35:14;;;;;;;11.68;8.15;;;;;;;12.35;74.17;96817.41;5096721;28;20016;-66
2021/09/27 02:38:14;;;;;;;11.68;7.30;;;;;;;12.34;73.42;96819.16;5096820;28;20107;-66
2021/09/27 02:40:57;;;;;;;13.25;8.05;;;;;;;12.32;73.57;96815.75;5096748;28;20513;-66
2021/09/27 02:43:25;;;;;;;10.40;8.15;;;;;;;12.25;74.04;96827.38;5096435;28;20028;-66
2021/09/27 02:45:51;;;;;;;11.82;8.57;;;;;;;12.12;74.94;96821.78;5096471;28;20027;-66
2021/09/27 02:48:21;;;;;;;12.80;7.55;;;;;;;12.18;74.49;96821.56;5096658;28;20028;-66
2021/09/27 02:50:52;;;;;;;10.35;8.10;;;;;;;12.19;73.70;96817.16;5096582;28;20032;-66
2021/09/27 02:53:20;;;;;;;11.82;8.15;;;;;;;12.17;73.99;96811.13;5096329;28;20044;-66
2021/09/27 02:56:04;;;;;;;9.70;7.93;;;;;;;12.05;73.84;96807.19;5096450;28;20074;-66
2021/09/27 02:58:53;;;;;;;12.93;7.88;;;;;;;12.05;73.81;96804.56;5096393;28;20038;-66
2021/09/27 03:01:29;;;;;;;10.07;7.90;;;;;;;12.00;73.67;96797.75;5096249;28;20028;-66
2021/09/27 03:04:12;;;;;;;8.98;7.00;;;;;;;11.98;73.81;96802.19;5096174;28;20085;-66
2021/09/27 03:06:59;;;;;;;11.32;7.75;;;;;;;11.95;74.13;96801.47;5096143;28;20481;-66
2021/09/27 03:09:45;;;;;;;12.70;7.75;;;;;;;11.89;74.21;96792.06;5096237;28;20036;-66
2021/09/27 03:12:22;;;;;;;9.73;7.63;;;;;;;11.90;73.94;96793.78;5096140;28;20028;-66
2021/09/27 03:15:02;;;;;;;10.23;8.07;;;;;;;11.86;74.22;96797.44;5096160;28;20074;-66
2021/09/27 03:17:39;;;;;;;14.85;9.07;;;;;;;11.86;74.85;96798.28;5096083;28;20028;-67
2021/09/27 03:20:18;;;;;;;11.57;9.45;;;;;;;11.87;76.04;96793.91;5095883;28;20043;-66
2021/09/27 03:23:23;;;;;;;13.02;8.88;;;;;;;11.85;77.00;96800.94;5095908;28;20376;-66
2021/09/27 03:26:10;;;;;;;14.38;9.13;;;;;;;11.87;78.00;96801.75;5095872;28;20066;-66
2021/09/27 03:29:21;;;;;;;14.23;8.90;;;;;;;11.88;77.40;96806.94;5095710;28;20059;-66
2021/09/27 03:31:50;;;;;;;10.00;7.63;;;;;;;11.90;75.91;96806.88;5095263;28;20028;-66
2021/09/27 03:34:42;;;;;;;13.43;8.93;;;;;;;11.92;75.97;96814.69;5095731;28;20056;-65
2021/09/27 03:37:43;;;;;;;13.50;8.65;;;;;;;11.91;77.47;96807.72;5095743;28;20046;-66
2021/09/27 03:40:27;;;;;;;;;;;;;;;11.91;76.38;96811.19;5096189;28;20088;-66
2021/09/27 03:43:24;;;;;;;9.63;7.75;;;;;;;11.87;76.13;96807.84;5095365;28;19935;-66
2021/09/27 03:46:22;;;;;;;11.40;8.25;;;;;;;11.91;74.89;96803.34;5095540;28;20027;-66
2021/09/27 03:49:02;;;;;;;11.45;8.27;;;;;;;11.86;75.18;96806.13;5040598;28;20053;-66
2021/09/27 03:51:36;;;;;;;9.95;8.23;;;;;;;11.84;75.41;96804.50;5095374;28;20039;-66
2021/09/27 03:54:14;;;;;;;9.35;7.45;;;;;;;11.79;75.55;96801.19;5095107;28;20120;-66
2021/09/27 03:56:47;;;;;;;10.65;8.05;;;;;;;11.78;75.80;96799.50;5095084;28;20081;-66
2021/09/27 03:59:19;;;;;;;13.32;7.95;;;;;;;11.80;74.82;96805.53;5095111;28;20479;-66
2021/09/27 04:02:29;;;;;;;9.75;8.25;;;;;;;11.79;74.44;96801.19;5095179;28;20042;-66
2021/09/27 04:05:13;;;;;;;16.40;7.65;;;;;;;11.76;74.97;96796.94;5032702;28;20072;-66
2021/09/27 04:07:53;;;;;;;9.63;8.32;;;;;;;11.74;74.61;96793.53;5032748;28;20029;-66
2021/09/27 04:11:08;;;;;;;11.50;8.18;;;;;;;11.75;74.64;96798.69;5075446;28;20117;-66
2021/09/27 04:13:39;;;;;;;10.15;7.55;;;;;;;11.75;74.32;96800.47;5068157;28;20031;-66
2021/09/27 04:16:04;;;;;;;;;;;;;;;11.73;74.61;96803.16;5095406;28;20030;-66
2021/09/27 04:19:02;;;;;;;12.40;8.82;;;;;;;11.63;75.71;96799.19;5094767;28;20364;-66
2021/09/27 04:21:46;;;;;;;17.77;9.27;;;;;;;11.68;76.04;96794.59;5094743;28;20515;-66
2021/09/27 04:24:25;;;;;;;9.45;7.90;;;;;;;11.74;74.69;96793.53;5094618;28;20058;-66
2021/09/27 04:27:17;;;;;;;11.88;7.72;;;;;;;11.73;74.91;96802.28;5094661;28;20473;-66
2021/09/27 04:30:12;;;;;;;10.85;8.00;;;;;;;11.75;74.46;96803.09;5094606;28;20024;-66
2021/09/27 04:32:44;;;;;;;9.70;7.20;;;;;;;11.78;74.12;96802.97;5094548;28;20082;-66
2021/09/27 04:35:16;;;;;;;14.35;7.88;;;;;;;11.74;75.07;96806.63;5094516;28;20067;-66
2021/09/27 04:37:45;;;;;;;14.20;8.68;;;;;;;11.72;76.11;96805.81;5094528;28;20385;-66
2021/09/27 04:40:12;;;;;;;10.65;7.75;;;;;;;11.78;75.94;96815.22;5094422;28;20024;-66
2021/09/27 04:42:56;;;;;;;11.30;8.38;;;;;;;11.86;75.34;96815.78;5094373;28;20059;-66
2021/09/27 04:45:42;;;;;;;9.52;7.53;;;;;;;11.95;75.26;96811.94;5093665;28;20420;-66
2021/09/27 04:48:11;;;;;;;14.38;7.90;;;;;;;12.01;74.52;96816.94;5094242;28;20035;-66
2021/09/27 04:51:01;;;;;;;10.50;7.70;;;;;;;12.00;74.55;96818.72;5094126;28;20024;-66
2021/09/27 04:53:45;;;;;;;10.93;8.10;;;;;;;12.06;74.50;96820.22;5094258;28;20048;-66
2021/09/27 04:56:19;;;;;;;8.68;6.15;;;;;;;12.69;73.15;96828.25;5094086;28;20111;-66
2021/09/27 04:59:10;;;;;;;9.02;6.00;;;;;;;13.77;69.50;96816.56;5094034;28;20028;-66
2021/09/27 05:01:59;;;;;;;6.40;4.03;;;;;;;14.93;67.07;96827.69;5093980;28;20103;-66
2021/09/27 05:04:40;;;;;;;10.40;5.03;;;;;;;16.25;62.23;96835.69;5094007;28;20103;-67
2021/09/27 05:07:26;;;;;;;5.82;4.03;;;;;;;17.24;58.26;96833.56;5093835;28;20076;-67
2021/09/27 05:10:20;;;;;;;5.95;3.58;;;;;;;18.08;56.04;96829.34;5093757;28;20032;-67
2021/09/27 05:13:02;;;;;;;11.27;4.38;;;;;;;18.89;53.95;96832.94;5093968;28;20517;-67
2021/09/27 05:16:00;;;;;;;8.88;4.38;;;;;;;19.57;52.77;96837.25;5093948;28;20028;-67
2021/09/27 05:18:46;;;;;;;6.00;3.90;;;;;;;20.44;49.83;96831.09;5093769;28;20531;-66
2021/09/27 05:21:35;;;;;;;10.88;3.80;;;;;;;21.12;49.23;96834.97;5093591;28;20480;-67
2021/09/27 05:24:10;;;;;;;4.13;3.60;;;;;;;21.95;47.07;96824.16;5093715;28;20461;-67
2021/09/27 05:26:47;;;;;;;7.47;3.58;;;;;;;22.70;45.32;96833.34;5093648;28;20032;-66
2021/09/27 05:29:40;;;;;;;8.52;4.18;;;;;;;23.26;44.24;96828.66;5093540;28;20465;-67
2021/09/27 05:32:13;;;;;;;7.35;3.63;;;;;;;23.83;43.67;96835.41;5093485;28;20032;-67
2021/09/27 05:35:03;;;;;;;6.28;3.65;;;;;;;24.46;42.67;96833.50;5093599;28;20077;-66
2021/09/27 05:38:00;;;;;;;7.28;3.72;;;;;;;25.05;41.21;96838.03;5093517;28;20035;-67
2021/09/27 05:40:52;;;;;;;5.18;3.92;;;;;;;25.52;40.45;96833.72;5059374;28;20153;-66
2021/09/27 05:43:43;;;;;;;4.68;3.50;;;;;;;26.17;39.70;96827.53;5069361;28;20047;-67
2021/09/27 05:46:53;;;;;;;4.38;3.35;;;;;;;26.78;38.37;96826.16;5093420;28;20035;-66
2021/09/27 05:49:27;;;;;;;5.53;3.83;;;;;;;27.41;37.67;96815.38;5079836;28;20393;-67
2021/09/27 05:52:01;;;;;;;3.85;3.10;;;;;;;27.77;37.52;96825.16;5093238;28;20067;-65
2021/09/27 05:54:41;;;;;;;3.83;3.10;;;;;;;28.10;36.08;96823.47;5092937;28;20048;-67
2021/09/27 05:57:10;;;;;;;4.55;3.17;;;;;;;28.49;35.92;96832.00;5093232;28;20016;-66
2021/09/27 05:59:46;;;;;;;4.53;3.10;;;;;;;28.95;35.85;96836.94;5093112;28;20091;-67
2021/09/27 06:02:33;;;;;;;5.53;3.20;;;;;;;29.47;34.72;96832.16;5093236;28;20080;-67
2021/09/27 06:05:16;;;;;;;5.45;3.30;;;;;;;30.06;33.49;96832.88;5093182;28;20036;-65
2021/09/27 06:08:21;;;;;;;5.13;3.22;;;;;;;30.60;33.63;96825.84;5093325;28;20056;-66
2021/09/27 06:11:08;;;;;;;3.70;3.08;;;;;;;31.02;32.33;96826.41;5093065;28;20153;-66
2021/09/27 06:13:36;;;;;;;5.45;3.15;;;;;;;31.24;31.51;96823.84;5093207;28;20031;-68
2021/09/27 06:16:26;;;;;;;5.68;4.10;;;;;;;31.42;31.40;96827.28;5093203;28;20020;-65
2021/09/27 06:19:13;;;;;;;7.80;3.75;;;;;;;31.70;30.47;96838.28;5093134;28;20032;-67
2021/09/27 06:21:50;;;;;;;7.15;3.85;;;;;;;31.93;29.81;96826.53;5092897;28;20028;-66
2021/09/27 06:24:55;;;;;;;6.45;3.60;;;;;;;32.11;29.39;96828.03;5092818;28;20016;-66
2021/09/27 06:27:35;;;;;;;5.43;4.05;;;;;;;31.76;30.00;96823.19;5092998;28;20028;-67
2021/09/27 06:30:25;;;;;;;4.22;3.67;;;;;;;31.82;29.60;96822.44;5093009;28;20085;-65
2021/09/27 06:32:56;;;;;;;5.65;4.28;;;;;;;32.04;30.15;96830.63;5092949;28;20028;-65
2021/09/27 06:35:31;;;;;;;5.40;4.00;;;;;;;32.24;29.45;96827.34;5092839;28;20041;-67
2021/09/27 06:38:03;;;;;;;4.43;3.78;;;;;;;32.37;28.66;96827.50;5093027;28;20465;-65
2021/09/27 06:40:29;;;;;;;5.18;3.60;;;;;;;32.43;29.82;96825.06;5092881;28;20486;-67
2021/09/27 06:42:56;;;;;;;6.78;4.10;;;;;;;32.26;29.81;96830.69;5092707;28;20538;-67
2021/09/27 06:45:22;;;;;;;7.68;3.60;;;;;;;32.10;29.72;96834.44;5092849;28;20025;-65
2021/09/27 06:47:48;;;;;;;6.10;3.90;;;;;;;31.98;29.87;96828.69;5092774;28;20028;-65
2021/09/27 06:50:14;;;;;;;9.50;3.63;;;;;;;31.71;30.01;96831.00;5092741;28;20024;-66
2021/09/27 06:52:39;;;;;;;5.30;3.40;;;;;;;31.49;30.06;96828.19;5092630;28;20531;-67
2021/09/27 06:55:07;;;;;;;3.85;3.05;;;;;;;31.46;30.50;96828.56;5092745;28;20032;-67
2021/09/27 06:57:33;;;;;;;8.43;3.08;;;;;;;31.37;30.30;96833.22;5092617;28;20016;-68
2021/09/27 06:59:58;;;;;;;3.42;3.13;;;;;;;31.22;31.06;96835.88;5092579;28;20358;-66
2021/09/27 07:02:24;;;;;;;4.40;3.10;;;;;;;31.06;31.26;96839.56;5092525;28;20070;-67
2021/09/27 07:04:51;;;;;;;5.70;3.83;;;;;;;30.84;31.74;96834.81;5092438;28;20032;-67
2021/09/27 07:07:17;;;;;;;4.80;3.78;;;;;;;30.70;32.11;96830.19;5093748;28;20115;-67
2021/09/27 07:09:43;;;;;;;7.85;3.75;;;;;;;30.35;32.03;96836.81;5096215;28;20472;-67
2021/09/27 07:12:11;;;;;;;8.48;4.00;;;;;;;30.10;32.36;96841.47;5096157;28;20604;-65
2021/09/27 07:14:37;;;;;;;4.68;3.67;;;;;;;30.06;32.82;96845.50;5096136;28;20146;-65
2021/09/27 07:17:03;;;;;;;6.35;4.10;;;;;;;29.59;33.83;96846.16;5096013;28;20032;-66
2021/09/27 07:19:29;;;;;;;5.82;3.92;;;;;;;29.40;33.26;96844.66;5095993;28;20020;-67
2021/09/27 07:21:55;;;;;;;8.68;3.55;;;;;;;29.36;34.08;96835.25;5095899;28;20477;-65
2021/09/27 07:24:22;;;;;;;4.10;3.47;;;;;;;29.33;33.90;96835.56;5095838;28;20073;-65
2021/09/27 07:26:47;;;;;;;10.35;3.63;;;;;;;29.11;34.33;96828.00;5094620;28;20287;-66
2021/09/27 07:29:13;;;;;;;8.05;3.25;;;;;;;29.02;35.18;96823.66;5095885;28;20473;-67
2021/09/27 07:31:39;;;;;;;12.85;3.70;;;;;;;28.76;33.30;96824.63;5095847;28;20048;-66
2021/09/27 07:34:05;;;;;;;5.13;2.83;;;;;;;28.69;34.94;96826.31;5095631;28;20493;-65
2021/09/27 07:36:31;;;;;;;3.78;3.20;;;;;;;28.63;34.34;96831.34;5095581;28;20069;-65
2021/09/27 07:38:57;;;;;;;9.05;3.47;;;;;;;28.36;33.54;96833.31;5095572;28;20024;-66
2021/09/27 07:41:23;;;;;;;3.85;3.25;;;;;;;28.07;33.66;96836.38;5095677;28;20024;-65
2021/09/27 07:43:48;;;;;;;6.75;3.42;;;;;;;28.13;35.02;96841.97;5095449;28;20028;-67
2021/09/27 07:46:22;;;;;;;7.45;3.35;;;;;;;28.00;34.89;96831.66;5095439;28;20484;-67
2021/09/27 07:48:47;;;;;;;9.93;3.20;;;;;;;28.00;35.08;96830.81;5095480;28;20028;-66
2021/09/27 07:51:13;;;;;;;7.40;3.60;;;;;;;27.96;34.07;96843.72;5095413;28;20546;-66
2021/09/27 07:53:39;;;;;;;7.07;3.50;;;;;;;27.80;34.31;96841.81;5094995;28;20536;-65
2021/09/27 07:56:05;;;;;;;6.85;3.20;;;;;;;27.74;35.10;96835.25;5095337;28;20028;-67
2021/09/27 07:58:30;;;;;;;5.72;3.80;;;;;;;27.87;33.88;96828.56;5095222;28;20089;-66
2021/09/27 08:00:56;;;;;;;8.07;3.50;;;;;;;28.08;34.72;96838.09;5095182;28;20024;-66
2021/09/27 08:03:22;;;;;;;4.53;3.38;;;;;;;28.12;35.87;96828.69;5095036;28;20031;-67
2021/09/27 08:05:49;;;;;;;8.85;3.60;;;;;;;28.26;35.55;96829.88;5095165;28;20040;-65
2021/09/27 08:08:14;;;;;;;7.85;3.60;;;;;;;28.35;35.18;96831.63;5095131;28;20027;-65
2021/09/27 08:10:40;;;;;;;6.80;3.55;;;;;;;28.33;35.12;96833.66;5095017;28;20537;-65
2021/09/27 08:13:07;;;;;;;4.20;3.28;;;;;;;28.34;35.87;96834.47;5094902;28;20016;-64
2021/09/27 08:15:37;;;;;;;5.43;3.53;;;;;;;28.20;35.36;96828.69;5094885;28;20017;-67
2021/09/27 08:18:04;;;;;;;5.68;3.30;;;;;;;28.45;33.88;96827.97;5094778;28;20024;-65
2021/09/27 08:20:38;;;;;;;8.05;3.20;;;;;;;28.40;34.79;96825.75;5094801;28;20546;-67
2021/09/27 08:23:03;;;;;;;5.90;3.88;;;;;;;28.44;35.57;96828.97;5094777;28;20054;-65
2021/09/27 08:25:29;;;;;;;7.22;3.40;;;;;;;28.46;34.79;96832.31;5094573;28;20024;-66
2021/09/27 08:27:56;;;;;;;5.10;3.65;;;;;;;28.50;35.14;96826.44;5094555;28;20028;-66
2021/09/27 08:30:27;;;;;;;7.32;3.70;;;;;;;28.54;33.87;96820.75;5094651;28;20378;-65
2021/09/27 08:32:53;;;;;;;4.55;3.35;;;;;;;28.78;34.10;96816.41;5094591;28;20523;-66
2021/09/27 08:35:19;;;;;;;5.45;3.53;;;;;;;28.68;33.88;96822.78;5094496;28;20016;-66
2021/09/27 08:37:46;;;;;;;8.80;3.80;;;;;;;28.54;34.43;96820.75;5094566;28;20027;-66
2021/09/27 08:40:32;;;;;;;6.68;3.50;;;;;;;28.39;35.05;96816.03;5094560;28;20359;-66
2021/09/27 08:43:08;;;;;;;15.05;3.70;;;;;;;28.16;35.46;96818.44;5093011;28;20028;-67
2021/09/27 08:45:36;;;;;;;8.82;3.65;;;;;;;27.97;33.29;96815.88;5094351;28;20020;-67
2021/09/27 08:48:23;;;;;;;5.25;3.40;;;;;;;27.86;36.53;96811.63;5094293;28;20496;-65
2021/09/27 08:50:49;;;;;;;5.72;3.97;;;;;;;27.83;36.00;96813.78;5094230;28;20053;-67
2021/09/27 08:53:31;;;;;;;4.05;3.33;;;;;;;27.82;35.34;96817.47;5093827;28;20044;-64
2021/09/27 08:56:07;;;;;;;9.98;3.75;;;;;;;27.88;35.53;96808.78;5094106;28;20036;-67
2021/09/27 08:58:48;;;;;;;5.90;3.28;;;;;;;27.93;36.29;96811.81;5094150;28;20070;-67
2021/09/27 09:01:20;;;;;;;6.05;3.45;;;;;;;27.93;34.01;96797.53;5094175;28;20035;-66
2021/09/27 09:03:50;;;;;;;6.38;3.55;;;;;;;27.81;36.00;96800.50;5093948;28;20054;-65
2021/09/27 09:06:30;;;;;;;8.98;3.10;;;;;;;27.80;34.95;96803.34;5094013;28;20032;-66
2021/09/27 09:09:17;;;;;;;5.53;3.40;;;;;;;27.71;35.75;96794.41;5094036;28;20034;-67
2021/09/27 09:11:54;;;;;;;10.70;3.25;;;;;;;27.76;34.91;96792.09;5093826;28;20020;-66
2021/09/27 09:14:44;;;;;;;6.93;3.90;;;;;;;27.67;34.70;96795.75;5094023;28;20035;-66
2021/09/27 09:17:21;;;;;;;6.87;3.07;;;;;;;27.60;36.01;96785.59;5093987;28;20081;-66
2021/09/27 09:19:47;;;;;;;7.40;3.58;;;;;;;27.58;35.72;96784.94;5093808;28;20030;-66
2021/09/27 09:22:41;;;;;;;8.70;3.60;;;;;;;27.40;34.94;96782.31;5093719;28;20027;-66
2021/09/27 09:25:12;;;;;;;7.30;3.40;;;;;;;26.99;34.95;96778.38;5091268;28;20047;-64
2021/09/27 09:27:38;;;;;;;10.63;3.35;;;;;;;26.85;36.29;96779.75;5093685;28;20066;-66
2021/09/27 09:30:06;;;;;;;8.88;3.28;;;;;;;26.82;35.56;96776.53;5091848;28;20024;-66
2021/09/27 09:32:35;;;;;;;7.32;3.20;;;;;;;26.39;37.57;96773.66;5093552;28;20066;-67
2021/09/27 09:35:21;;;;;;;5.05;3.65;;;;;;;26.40;37.62;96781.56;5093561;28;20016;-67
2021/09/27 09:38:00;;;;;;;7.25;3.15;;;;;;;26.25;36.44;96776.66;5093528;28;20032;-67
2021/09/27 09:40:34;;;;;;;4.75;3.53;;;;;;;26.03;38.05;96771.75;5093610;28;20039;-66
2021/09/27 09:43:10;;;;;;;7.53;3.78;;;;;;;26.06;37.70;96768.75;5093368;28;20456;-67
2021/09/27 09:45:48;;;;;;;7.72;3.22;;;;;;;26.01;36.04;96771.06;5093402;28;20101;-66
2021/09/27 09:48:23;;;;;;;7.20;3.20;;;;;;;26.06;36.74;96769.59;5093379;28;20043;-66
2021/09/27 09:50:53;;;;;;;10.88;3.65;;;;;;;26.18;36.14;96774.75;5093237;28;20393;-64
2021/09/27 09:53:28;;;;;;;11.27;3.85;;;;;;;26.23;36.49;96764.41;5092981;28;20075;-67
2021/09/27 09:56:14;;;;;;;18.45;3.70;;;;;;;25.87;36.17;96770.56;5093432;28;20030;-65
2021/09/27 09:58:46;;;;;;;6.03;4.00;;;;;;;25.78;36.63;96774.13;5093342;28;20130;-65
2021/09/27 10:01:27;;;;;;;5.45;3.75;;;;;;;25.85;38.60;96770.72;5093355;28;20481;-65
2021/09/27 10:04:03;;;;;;;4.80;3.35;;;;;;;25.85;38.39;96768.03;5093145;28;20024;-68
2021/09/27 10:06:42;;;;;;;6.00;2.92;;;;;;;26.01;39.70;96763.88;5093125;28;20028;-66
2021/09/27 10:09:17;;;;;;;10.90;3.55;;;;;;;26.11;39.11;96761.97;5093248;28;20500;-64
2021/09/27 10:12:04;;;;;;;7.63;3.45;;;;;;;26.05;36.34;96756.34;5093171;28;20470;-67
2021/09/27 10:14:30;;;;;;;15.63;3.25;;;;;;;26.07;38.41;96754.38;5093050;28;20119;-66
2021/09/27 10:17:29;;;;;;;6.78;3.30;;;;;;;25.90;36.54;96746.16;5092992;28;20103;-66
2021/09/27 10:19:57;;;;;;;5.60;3.22;;;;;;;25.87;36.54;96749.16;5093186;28;20028;-64
2021/09/27 10:22:27;;;;;;;6.88;3.63;;;;;;;25.82;37.91;96754.09;5093087;28;20035;-67
2021/09/27 10:24:59;;;;;;;9.02;4.10;;;;;;;25.91;37.88;96741.66;5092916;28;20082;-66
2021/09/27 10:27:33;;;;;;;9.85;3.20;;;;;;;25.86;35.95;96747.47;5092911;28;20501;-66
2021/09/27 10:30:06;;;;;;;12.40;3.35;;;;;;;25.70;35.82;96740.91;5093013;28;20024;-64
2021/09/27 10:33:02;;;;;;;9.35;3.85;;;;;;;25.73;37.17;96737.94;5091612;28;20031;-65
2021/09/27 10:35:46;;;;;;;11.45;3.38;;;;;;;25.58;36.66;96742.91;5087970;28;20036;-66
2021/09/27 10:38:14;;;;;;;4.82;3.00;;;;;;;25.74;38.48;96730.75;5091619;28;20107;-65
2021/09/27 10:40:42;;;;;;;9.85;3.33;;;;;;;25.69;38.16;96731.19;5092799;28;20024;-66
2021/09/27 10:43:13;;;;;;;6.47;3.47;;;;;;;25.90;37.74;96724.72;5095268;28;20024;-64
2021/09/27 10:45:42;;;;;;;9.52;3.45;;;;;;;25.82;37.48;96722.81;5095330;28;20389;-65
2021/09/27 10:48:09;;;;;;;7.57;3.88;;;;;;;25.81;36.16;96712.25;5096619;28;20115;-65
2021/09/27 10:50:59;;;;;;;4.53;3.22;;;;;;;25.90;36.98;96715.84;5096471;28;20043;-64
2021/09/27 10:53:42;;;;;;;5.97;3.22;;;;;;;26.04;38.03;96709.13;5096282;28;20497;-64
2021/09/27 10:56:17;;;;;;;5.70;3.53;;;;;;;26.11;36.26;96702.16;5096614;28;20481;-66
2021/09/27 10:58:44;;;;;;;5.93;3.30;;;;;;;26.21;36.69;96707.44;5096607;28;20099;-64
2021/09/27 11:01:31;;;;;;;6.75;3.10;;;;;;;26.14;35.97;96698.31;5096395;28;20499;-65
2021/09/27 11:03:59;;;;;;;5.10;4.03;;;;;;;25.69;36.19;96698.22;5096113;28;20486;-64
2021/09/27 11:06:43;;;;;;;8.50;3.30;;;;;;;25.62;38.32;96695.31;5096467;28;20024;-66
2021/09/27 11:09:18;;;;;;;6.63;3.70;;;;;;;25.65;38.17;96696.84;5096280;28;20105;-65
2021/09/27 11:11:56;;;;;;;4.88;3.25;;;;;;;25.63;36.50;96701.47;5096190;28;20073;-65
2021/09/27 11:14:39;;;;;;;8.05;3.30;;;;;;;25.68;36.25;96692.03;5096242;28;20078;-65
2021/09/27 11:17:08;;;;;;;9.35;3.30;;;;;;;25.76;36.12;96691.25;5096151;28;20035;-66
2021/09/27 11:19:33;;;;;;;6.63;3.75;;;;;;;25.72;37.87;96697.91;5095992;28;20030;-65
2021/09/27 11:22:44;;;;;;;5.03;3.60;;;;;;;25.82;38.44;96685.31;5096092;28;20012;-64
2021/09/27 11:25:35;;;;;;;7.85;3.30;;;;;;;25.96;35.96;96688.44;5095932;28;20518;-64
2021/09/27 11:28:04;;;;;;;7.43;3.33;;;;;;;25.96;35.51;96689.31;5095752;28;20035;-65
2021/09/27 11:30:51;;;;;;;5.93;3.40;;;;;;;25.76;35.34;96693.94;5095667;28;20028;-64
2021/09/27 11:33:40;;;;;;;5.78;3.28;;;;;;;25.74;35.89;96686.06;5095762;28;20028;-67
2021/09/27 11:36:15;;;;;;;4.28;3.22;;;;;;;25.84;37.21;96680.66;5066991;28;20032;-66
2021/09/27 11:38:48;;;;;;;8.40;3.63;;;;;;;25.80;36.58;96676.59;5095697;28;20028;-67
2021/09/27 11:41:13;;;;;;;7.32;3.30;;;;;;;25.82;35.87;96669.22;5095628;28;20028;-66
2021/09/27 11:43:55;;;;;;;4.53;3.17;;;;;;;26.03;35.93;96668.09;5095563;28;20028;-66
2021/09/27 11:46:32;;;;;;;6.13;3.03;;;;;;;26.17;37.38;96663.19;5095566;28;20031;-67
2021/09/27 11:49:36;;;;;;;6.53;3.35;;;;;;;26.28;34.88;96656.75;5095589;28;20024;-64
2021/09/27 11:52:11;;;;;;;7.47;3.33;;;;;;;26.28;35.13;96662.13;5095471;28;20039;-66
2021/09/27 11:54:48;;;;;;;4.03;3.17;;;;;;;25.94;35.58;96647.56;5095016;28;20048;-66
2021/09/27 11:57:38;;;;;;;5.47;3.53;;;;;;;25.83;35.89;96644.13;5095326;28;20028;-65
2021/09/27 12:00:19;;;;;;;3.88;3.13;;;;;;;25.86;36.17;96646.50;5095379;28;20028;-66
2021/09/27 12:03:30;;;;;;;7.28;3.50;;;;;;;26.04;35.84;96640.31;5095395;28;20023;-64
2021/09/27 12:06:01;;;;;;;7.15;2.95;;;;;;;26.14;35.48;96625.97;5061066;28;20511;-65
2021/09/27 12:08:38;;;;;;;8.43;4.07;;;;;;;26.25;37.78;96626.56;5095172;28;20032;-65
2021/09/27 12:11:13;;;;;;;5.10;3.25;;;;;;;26.23;36.27;96627.72;5095254;28;20036;-64
2021/09/27 12:13:46;;;;;;;9.45;3.38;;;;;;;26.33;35.97;96628.50;5095084;28;20428;-65
2021/09/27 12:16:18;;;;;;;5.97;3.10;;;;;;;26.32;35.48;96624.16;5094934;28;20023;-65
2021/09/27 12:18:48;;;;;;;8.35;3.47;;;;;;;26.06;35.35;96619.56;5094835;28;20107;-65